Sumisemaru No.5 — JE3162 — position and weather

sailwx.info

Track history (hours):
 
Tides and Currents Weather Stations Pressure Air Temp Water Temp Dewpoint Dewpoint Depression Visibility Wind Speed Wind Dir Waves Ship Positions

Sumisemaru No.5

Last reported at 2014-Dec-18 07:27 UTC. Time now 2014-Dec-20 07:59 UTC.
Position N 35°12' E 139°46'.

Length 96 m; draft 5 m.

Type: Cargo ship. MMSI: 431700423.

Date/timePositionNaut miles runAvg speedWind from/ knotsBaromVisibWave heightAir tempDewpointWater temp
2014-Dec-18 07:27N 35°12' E 139°46'1112.5
2014-Dec-18 06:33N 35°22' E 139°42'7 6.4
2014-Dec-18 05:31N 35°29' E 139°40'0 0.0
2014-Dec-18 04:28N 35°29' E 139°40'0 0.0
2014-Dec-18 03:31N 35°29' E 139°40'0 0.0
2014-Dec-18 02:31N 35°29' E 139°40'0 0.0
2014-Dec-18 01:31N 35°29' E 139°40'0 0.0
2014-Dec-18 00:31N 35°29' E 139°40'2 1.7
2014-Dec-17 23:34N 35°27' E 139°41'1010.0
2014-Dec-17 22:33N 35°31' E 139°52'2 0.1
2014-Dec-17 05:11N 35°33' E 139°51'4 0.2
2014-Dec-16 09:10N 35°30' E 139°54'711.3
2014-Dec-16 08:33N 35°25' E 139°48'10 9.9
2014-Dec-16 07:33N 35°15' E 139°47'  
2014-Dec-10 14:33N 35°11' E 139°46'1212.2
2014-Dec-10 13:33N 35°23' E 139°42'1211.7
2014-Dec-10 12:30N 35°30' E 139°55'1 0.1
2014-Dec-09 22:31N 35°29' E 139°57'0 0.1
2014-Dec-09 20:22N 35°29' E 139°57'0 0.0
2014-Dec-09 17:09N 35°30' E 139°57'6 9.8
2014-Dec-09 16:33N 35°27' E 139°50'1010.4
2014-Dec-09 15:33N 35°17' E 139°45'  
Track history (hours):
 
Tides and Currents Weather Stations Pressure Air Temp Water Temp Dewpoint Dewpoint Depression Visibility Wind Speed Wind Dir Waves Ship Positions

Sumisemaru No.5

Last reported at 2014-Dec-18 07:27 UTC. Time now 2014-Dec-20 07:59 UTC.
Position N 35°12' E 139°46'.

Length 96 m; draft 5 m.

Type: Cargo ship. MMSI: 431700423.

Date/timePositionNaut miles runAvg speedWind from/ knotsBaromVisibWave heightAir tempDewpointWater temp
2014-Dec-18 07:27N 35°12' E 139°46'1112.5
2014-Dec-18 06:33N 35°22' E 139°42'7 6.4
2014-Dec-18 05:31N 35°29' E 139°40'0 0.0
2014-Dec-18 04:28N 35°29' E 139°40'0 0.0
2014-Dec-18 03:31N 35°29' E 139°40'0 0.0
2014-Dec-18 02:31N 35°29' E 139°40'0 0.0
2014-Dec-18 01:31N 35°29' E 139°40'0 0.0
2014-Dec-18 00:31N 35°29' E 139°40'2 1.7
2014-Dec-17 23:34N 35°27' E 139°41'1010.0
2014-Dec-17 22:33N 35°31' E 139°52'2 0.1
2014-Dec-17 05:11N 35°33' E 139°51'4 0.2
2014-Dec-16 09:10N 35°30' E 139°54'711.3
2014-Dec-16 08:33N 35°25' E 139°48'10 9.9
2014-Dec-16 07:33N 35°15' E 139°47'  
2014-Dec-10 14:33N 35°11' E 139°46'1212.2
2014-Dec-10 13:33N 35°23' E 139°42'1211.7
2014-Dec-10 12:30N 35°30' E 139°55'1 0.1
2014-Dec-09 22:31N 35°29' E 139°57'0 0.1
2014-Dec-09 20:22N 35°29' E 139°57'0 0.0
2014-Dec-09 17:09N 35°30' E 139°57'6 9.8
2014-Dec-09 16:33N 35°27' E 139°50'1010.4
2014-Dec-09 15:33N 35°17' E 139°45'  

Dump ship's entire track history